Time;durP1;ratioP1;P1;durP2;ratioP2;P2;SDS_P1;SDS_P2;PMS_P1;PMS_P2;Temp;Humidity;BMP_temperature;BMP_pressure;BME280_temperature;BME280_humidity;BME280_pressure;Samples;Min_cycle;Max_cycle;Signal;HPM_P1;HPM_P2
2022/05/11 00:00:58;;;;;;;;;;;;;;;26.02;14.50;99904.19;5112910;28;19962;-73
2022/05/11 00:03:23;;;;;;;;;;;;;;;26.02;14.53;99901.47;5117428;28;19938;-75
2022/05/11 00:05:48;;;;;;;;;;;;;;;26.00;14.47;99890.00;5117691;28;19920;-74
2022/05/11 00:08:14;;;;;;;;;;;;;;;26.02;14.32;99884.22;5117573;28;20338;-74
2022/05/11 00:10:39;;;;;;;;;;;;;;;26.02;14.46;99882.28;5116914;28;19972;-74
2022/05/11 00:13:04;;;;;;;;;;;;;;;26.02;14.37;99876.00;5117388;28;19926;-73
2022/05/11 00:15:29;;;;;;;;;;;;;;;26.01;14.42;99877.94;5117183;28;20049;-74
2022/05/11 00:17:55;;;;;;;;;;;;;;;26.01;14.42;99872.47;5116698;28;19955;-75
2022/05/11 00:20:22;;;;;;;;;;;;;;;26.01;14.38;99869.72;5116874;28;19923;-75
2022/05/11 00:22:48;;;;;;;;;;;;;;;25.99;14.21;99858.28;5117130;28;20394;-74
2022/05/11 00:25:14;;;;;;;;;;;;;;;26.01;14.34;99856.03;5098767;28;19927;-73
2022/05/11 00:27:39;;;;;;;;;;;;;;;26.01;14.33;99861.53;5117114;28;19916;-75
2022/05/11 00:30:05;;;;;;;;;;;;;;;25.94;14.14;99844.69;5117895;28;20407;-75
2022/05/11 00:32:31;;;;;;;;;;;;;;;26.01;14.17;99847.84;5117312;28;19916;-76
2022/05/11 00:34:56;;;;;;;;;;;;;;;26.00;14.11;99837.97;5116827;28;19916;-75
2022/05/11 00:37:21;;;;;;;;;;;;;;;26.00;14.15;99832.50;5117013;28;19941;-75
2022/05/11 00:39:47;;;;;;;;;;;;;;;26.01;14.27;99830.59;5117115;28;20366;-76
2022/05/11 00:42:12;;;;;;;;;;;;;;;26.00;14.15;99834.44;5116919;28;20353;-76
2022/05/11 00:44:37;;;;;;;;;;;;;;;26.00;14.15;99827.03;5116894;28;19974;-74
2022/05/11 00:47:02;;;;;;;;;;;;;;;26.00;14.18;99827.03;5116572;28;20393;-75
2022/05/11 00:49:35;;;;;;;;;;;;;;;26.01;14.19;99823.19;5116898;28;19923;-73
2022/05/11 00:52:06;;;;;;;;;;;;;;;25.99;14.27;99809.00;5099019;28;19915;-74
2022/05/11 00:54:32;;;;;;;;;;;;;;;25.99;14.20;99809.00;5116623;28;19916;-73
2022/05/11 00:57:00;;;;;;;;;;;;;;;25.99;14.12;99800.78;5116240;28;20438;-75
2022/05/11 00:59:26;;;;;;;;;;;;;;;25.99;14.19;99798.06;5114904;28;19916;-75
2022/05/11 01:01:51;;;;;;;;;;;;;;;26.00;14.32;99779.69;5078276;28;19916;-76
2022/05/11 01:04:20;;;;;;;;;;;;;;;26.01;14.05;99775.84;5096004;28;20346;-75
2022/05/11 01:06:45;;;;;;;;;;;;;;;26.00;14.30;99776.94;5094995;28;19920;-75
2022/05/11 01:09:11;;;;;;;;;;;;;;;26.00;14.06;99769.53;5077940;28;19928;-74
2022/05/11 01:11:53;;;;;;;;;;;;;;;26.00;14.09;99766.00;5095999;28;19924;-75
2022/05/11 01:14:19;;;;;;;;;;;;;;;25.99;14.11;99759.72;5095601;28;19987;-74
2022/05/11 01:16:46;;;;;;;;;;;;;;;25.98;14.15;99749.88;5077771;28;19916;-74
2022/05/11 01:19:13;;;;;;;;;;;;;;;25.99;14.26;99754.25;5095172;28;19916;-74
2022/05/11 01:21:42;;;;;;;;;;;;;;;26.00;14.05;99744.91;5077618;28;20324;-74
2022/05/11 01:24:27;;;;;;;;;;;;;;;26.00;14.30;99728.47;5077004;28;19934;-76
2022/05/11 01:26:53;;;;;;;;;;;;;;;26.00;14.30;99744.09;5032626;28;19970;-74
2022/05/11 01:29:19;;;;;;;;;;;;;;;25.98;14.12;99730.72;5032864;28;19921;-75
2022/05/11 01:31:44;;;;;;;;;;;;;;;26.00;14.14;99728.47;5032782;28;19925;-74
2022/05/11 01:34:09;;;;;;;;;;;;;;;25.99;14.33;99729.59;5033290;28;19917;-73
2022/05/11 01:36:35;;;;;;;;;;;;;;;25.99;14.33;99715.91;5032451;28;21872;-72
2022/05/11 01:39:01;;;;;;;;;;;;;;;25.98;13.98;99711.56;5032706;28;19917;-74
2022/05/11 01:41:29;;;;;;;;;;;;;;;25.99;14.26;99709.63;5016195;28;19940;-74
2022/05/11 01:43:54;;;;;;;;;;;;;;;25.99;13.96;99706.88;5032509;28;19917;-74
2022/05/11 01:46:19;;;;;;;;;;;;;;;25.99;14.06;99694.00;5032412;28;19923;-75
2022/05/11 01:48:45;;;;;;;;;;;;;;;26.00;14.15;99692.88;5032434;28;19993;-76
2022/05/11 01:51:13;;;;;;;;;;;;;;;25.99;14.14;99688.53;5032580;28;20442;-73
2022/05/11 01:53:38;;;;;;;;;;;;;;;25.99;14.12;99687.72;5032192;28;19917;-73
2022/05/11 01:56:04;;;;;;;;;;;;;;;25.99;14.12;99683.06;5032219;28;19937;-73
2022/05/11 01:58:29;;;;;;;;;;;;;;;25.99;14.11;99672.13;5032263;28;19951;-73
2022/05/11 02:00:55;;;;;;;;;;;;;;;26.00;13.96;99668.25;5044730;28;19917;-73
2022/05/11 02:03:20;;;;;;;;;;;;;;;26.00;14.19;99665.50;5067836;28;19915;-75
2022/05/11 02:08:33;;;;;;;;;;;;;;;25.96;13.99;99655.50;5115685;28;19958;-74
2022/05/11 02:10:58;;;;;;;;;;;;;;;25.96;14.02;99650.81;5114546;28;19951;-74
2022/05/11 02:13:23;;;;;;;;;;;;;;;25.96;14.06;99650.81;5114595;28;19923;-75
2022/05/11 02:15:50;;;;;;;;;;;;;;;25.96;14.12;99639.88;5114546;28;19928;-74
2022/05/11 02:18:15;;;;;;;;;;;;;;;25.96;14.11;99645.34;5114612;28;19916;-76
2022/05/11 02:20:40;;;;;;;;;;;;;;;25.91;13.97;99634.47;5114345;28;19958;-75
2022/05/11 02:23:06;;;;;;;;;;;;;;;25.96;13.97;99634.41;5114769;28;19916;-74
2022/05/11 02:25:31;;;;;;;;;;;;;;;25.96;14.00;99636.34;5114281;28;20315;-74
2022/05/11 02:27:56;;;;;;;;;;;;;;;25.95;13.99;99638.25;5115129;28;19938;-75
2022/05/11 02:30:23;;;;;;;;;;;;;;;25.95;14.15;99627.28;5114247;28;19968;-74
2022/05/11 02:32:48;;;;;;;;;;;;;;;25.97;13.99;99618.78;5114187;28;20415;-74
2022/05/11 02:35:13;;;;;;;;;;;;;;;25.95;14.02;99605.41;5114481;28;20010;-75
2022/05/11 02:38:05;;;;;;;;;;;;;;;25.95;14.10;99610.88;5114445;28;20260;-73
2022/05/11 02:40:31;;;;;;;;;;;;;;;25.93;14.07;99607.59;5111089;28;19922;-75
2022/05/11 02:42:57;;;;;;;;;;;;;;;25.95;13.93;99590.91;5114427;28;19940;-74
2022/05/11 02:45:22;;;;;;;;;;;;;;;25.93;13.97;99591.19;5114089;28;19973;-73
2022/05/11 02:47:48;;;;;;;;;;;;;;;25.95;14.13;99588.16;5114296;28;19945;-74
2022/05/11 02:50:14;;;;;;;;;;;;;;;25.94;14.07;99587.38;5113958;28;20327;-73
2022/05/11 02:52:39;;;;;;;;;;;;;;;25.95;14.02;99577.22;5114280;28;19995;-74
2022/05/11 02:55:05;;;;;;;;;;;;;;;25.94;14.07;99576.41;5114321;28;19981;-74
2022/05/11 02:57:30;;;;;;;;;;;;;;;25.96;14.03;99567.91;5114137;28;19916;-73
2022/05/11 02:59:55;;;;;;;;;;;;;;;25.95;13.99;99569.00;5110944;28;19923;-74
2022/05/11 03:02:21;;;;;;;;;;;;;;;25.94;14.07;99560.00;5093767;28;19916;-75
2022/05/11 03:04:46;;;;;;;;;;;;;;;25.96;14.20;99554.22;5093587;28;19986;-73
2022/05/11 03:07:11;;;;;;;;;;;;;;;25.95;14.10;99564.34;5093690;28;20350;-73
2022/05/11 03:09:37;;;;;;;;;;;;;;;25.95;13.95;99553.38;5093901;28;19997;-73
2022/05/11 03:12:02;;;;;;;;;;;;;;;25.97;14.29;99542.13;5093852;28;19924;-74
2022/05/11 03:14:27;;;;;;;;;;;;;;;25.96;14.09;99532.31;5093546;28;20362;-74
2022/05/11 03:16:53;;;;;;;;;;;;;;;25.95;14.27;99528.75;5093468;28;19955;-74
2022/05/11 03:19:18;;;;;;;;;;;;;;;25.97;14.11;99515.56;5093567;28;20411;-73
2022/05/11 03:21:43;;;;;;;;;;;;;;;25.98;14.20;99522.66;5093351;28;19916;-72
2022/05/11 03:24:08;;;;;;;;;;;;;;;25.99;14.15;99527.03;5075672;28;19924;-73
2022/05/11 03:26:35;;;;;;;;;;;;;;;26.00;14.21;99519.59;5077301;28;19967;-73
2022/05/11 03:29:02;;;;;;;;;;;;;;;26.00;14.14;99508.66;5073427;28;19921;-74
2022/05/11 03:31:27;;;;;;;;;;;;;;;25.99;14.39;99502.38;5076587;28;19955;-75
2022/05/11 03:36:37;;;;;;;;;;;;;;;26.01;14.24;99500.13;5076791;28;19938;-75
2022/05/11 03:39:02;;;;;;;;;;;;;;;26.01;14.44;99480.97;5077114;28;19942;-72
2022/05/11 03:41:28;;;;;;;;;;;;;;;26.03;14.38;99486.94;5076812;28;19921;-72
2022/05/11 03:43:53;;;;;;;;;;;;;;;26.04;14.49;99476.78;5059097;28;19923;-73
2022/05/11 03:46:18;;;;;;;;;;;;;;;26.03;14.71;99476.00;5076987;28;19999;-74
2022/05/11 03:48:44;;;;;;;;;;;;;;;26.02;14.71;99474.34;5076969;28;19916;-75
2022/05/11 03:51:10;;;;;;;;;;;;;;;26.02;14.85;99457.94;5076917;28;19923;-73
2022/05/11 03:53:35;;;;;;;;;;;;;;;26.02;14.97;99457.13;5076527;28;19917;-72
2022/05/11 03:56:01;;;;;;;;;;;;;;;26.05;14.97;99457.31;5077089;28;19923;-72
2022/05/11 03:58:26;;;;;;;;;;;;;;;26.07;14.97;99454.25;5076777;28;19920;-73
2022/05/11 04:00:51;;;;;;;;;;;;;;;26.07;15.28;99459.75;5085912;28;20398;-74
2022/05/11 04:03:18;;;;;;;;;;;;;;;26.06;15.38;99455.41;5078908;28;19919;-73
2022/05/11 04:05:43;;;;;;;;;;;;;;;26.07;15.35;99451.53;5096755;28;20350;-73
2022/05/11 04:08:09;;;;;;;;;;;;;;;26.08;15.71;99447.69;5097319;28;19947;-73
2022/05/11 04:10:34;;;;;;;;;;;;;;;26.08;15.53;99444.94;5096452;28;20446;-73
2022/05/11 04:13:00;;;;;;;;;;;;;;;26.08;15.63;99466.84;5096840;28;19916;-74
2022/05/11 04:15:25;;;;;;;;;;;;;;;26.09;16.03;99475.84;5096522;28;20278;-73
2022/05/11 04:17:50;;;;;;;;;;;;;;;26.11;16.00;99465.41;5096270;28;19916;-75
2022/05/11 04:20:16;;;;;;;;;;;;;;;26.08;16.31;99487.91;5096787;28;19923;-73
2022/05/11 04:22:41;;;;;;;;;;;;;;;26.09;16.22;99478.59;5096646;28;19916;-73
2022/05/11 04:25:07;;;;;;;;;;;;;;;26.09;16.50;99481.34;5100153;28;20238;-71
2022/05/11 04:27:33;;;;;;;;;;;;;;;26.11;16.71;99465.41;5116823;28;19919;-74
2022/05/11 04:29:59;;;;;;;;;;;;;;;26.11;16.74;99457.19;5116622;28;19916;-73
2022/05/11 04:32:25;;;;;;;;;;;;;;;26.12;16.51;99454.13;5116280;28;20373;-74
2022/05/11 04:34:50;;;;;;;;;;;;;;;26.13;16.69;99458.50;5116652;28;19919;-74
2022/05/11 04:37:15;;;;;;;;;;;;;;;26.12;17.03;99467.03;5116477;28;19916;-74
2022/05/11 04:39:41;;;;;;;;;;;;;;;26.11;17.38;99466.19;5116366;28;19923;-73
2022/05/11 04:42:07;;;;;;;;;;;;;;;26.11;17.51;99463.47;5115370;28;19916;-74
2022/05/11 04:44:32;;;;;;;;;;;;;;;26.13;17.48;99454.94;5116210;28;19927;-71
2022/05/11 04:46:57;;;;;;;;;;;;;;;26.13;17.63;99452.19;5116627;28;19920;-74
2022/05/11 04:49:26;;;;;;;;;;;;;;;26.13;17.86;99446.72;5116863;28;19934;-74
2022/05/11 04:51:57;;;;;;;;;;;;;;;26.12;17.73;99443.19;5115978;28;20424;-77
2022/05/11 04:54:22;;;;;;;;;;;;;;;26.13;17.90;99441.25;5115946;28;19916;-75
2022/05/11 04:56:47;;;;;;;;;;;;;;;26.13;18.13;99452.19;5116403;28;19927;-74
2022/05/11 04:59:14;;;;;;;;;;;;;;;26.14;18.11;99442.88;5115853;28;19915;-71
2022/05/11 05:01:40;;;;;;;;;;;;;;;26.15;18.62;99433.53;5116115;28;19931;-73
2022/05/11 05:04:05;;;;;;;;;;;;;;;26.16;18.66;99424.19;5115815;28;19941;-75
2022/05/11 05:06:33;;;;;;;;;;;;;;;26.17;19.02;99425.81;5114594;28;19927;-75
2022/05/11 05:09:02;;;;;;;;;;;;;;;26.10;19.39;99430.94;5116168;28;20018;-75
2022/05/11 05:11:27;;;;;;;;;;;;;;;26.13;19.57;99422.06;5116090;28;19915;-73
2022/05/11 05:13:52;;;;;;;;;;;;;;;26.18;19.38;99421.94;5116135;28;20141;-73
2022/05/11 05:16:17;;;;;;;;;;;;;;;26.19;19.64;99420.81;5115629;28;20266;-73
2022/05/11 05:18:43;;;;;;;;;;;;;;;26.18;19.73;99416.47;5115899;27;19916;-73
2022/05/11 05:21:08;;;;;;;;;;;;;;;26.20;20.15;99414.25;5116040;28;20330;-75
2022/05/11 05:23:35;;;;;;;;;;;;;;;26.30;20.20;99411.22;5117073;28;19920;-74
2022/05/11 05:26:01;;;;;;;;;;;;;;;26.28;20.60;99416.19;5116846;28;19966;-77
2022/05/11 05:31:13;;;;;;;;;;;;;;;26.07;22.22;99406.94;5136265;27;19922;-75
2022/05/11 05:33:39;;;;;;;;;;;;;;;26.04;22.40;99400.97;5136412;27;19970;-74
2022/05/11 05:36:04;;;;;;;;;;;;;;;26.19;22.02;99396.19;5136082;27;20362;-73
2022/05/11 05:38:30;;;;;;;;;;;;;;;26.17;22.64;99388.28;5136410;27;20248;-74
2022/05/11 05:40:55;;;;;;;;;;;;;;;26.33;21.64;99380.44;5135813;27;19954;-74
2022/05/11 05:43:23;;;;;;;;;;;;;;;26.39;21.74;99373.69;5136189;27;19916;-75
2022/05/11 05:45:49;;;;;;;;;;;;;;;26.40;21.78;99358.06;5135931;27;19960;-74
2022/05/11 05:48:14;;;;;;;;;;;;;;;26.37;21.99;99365.00;5136143;27;19999;-74
2022/05/11 05:50:40;;;;;;;;;;;;;;;26.35;22.53;99356.28;5136004;27;19922;-75
2022/05/11 05:53:05;;;;;;;;;;;;;;;26.36;22.72;99363.38;5134958;27;20382;-74
2022/05/11 05:55:30;;;;;;;;;;;;;;;26.48;22.23;99357.28;5135449;27;19915;-74
2022/05/11 05:57:55;;;;;;;;;;;;;;;26.51;22.49;99348.44;5136058;27;19966;-75
2022/05/11 06:00:20;;;;;;;;;;;;;;;26.53;22.41;99346.19;5136306;27;20419;-74
2022/05/11 06:02:46;;;;;;;;;;;;;;;26.54;22.22;99346.97;5135811;27;19915;-75
2022/05/11 06:05:15;;;;;;;;;;;;;;;26.54;22.16;99341.50;5117367;27;20358;-74
2022/05/11 06:07:40;;;;;;;;;;;;;;;26.55;22.22;99343.13;5135825;27;19919;-77
2022/05/11 06:10:05;;;;;;;;;;;;;;;26.33;22.67;99336.63;5135571;27;20334;-75
2022/05/11 06:12:30;;;;;;;;;;;;;;;26.54;22.61;99355.19;5135432;27;19938;-75
2022/05/11 06:14:56;;;;;;;;;;;;;;;26.59;22.59;99352.31;5135206;27;19927;-73
2022/05/11 06:17:23;;;;;;;;;;;;;;;26.58;22.42;99347.97;5135068;27;19958;-74
2022/05/11 06:19:49;;;;;;;;;;;;;;;26.57;22.65;99340.84;5135016;27;20002;-74
2022/05/11 06:22:14;;;;;;;;;;;;;;;26.56;22.61;99333.75;5134990;27;20392;-74
2022/05/11 06:24:40;;;;;;;;;;;;;;;26.55;22.54;99332.16;5135018;27;19931;-74
2022/05/11 06:27:05;;;;;;;;;;;;;;;26.57;22.46;99335.38;5135249;27;19919;-76
2022/05/11 06:29:30;;;;;;;;;;;;;;;26.60;22.07;99330.06;5135141;27;19926;-76
2022/05/11 06:31:56;;;;;;;;;;;;;;;26.61;22.13;99322.63;5134922;27;19987;-75
2022/05/11 06:34:21;;;;;;;;;;;;;;;26.63;22.33;99325.91;5134717;27;19915;-74
2022/05/11 06:36:47;;;;;;;;;;;;;;;26.61;22.56;99330.84;5134653;27;19923;-74
2022/05/11 06:39:12;;;;;;;;;;;;;;;26.59;22.40;99316.69;5134997;27;19923;-74
2022/05/11 06:41:38;;;;;;;;;;;;;;;26.66;22.94;99313.50;5135114;27;19919;-74
2022/05/11 06:44:03;;;;;;;;;;;;;;;26.68;23.05;99311.22;5134759;27;20362;-75
2022/05/11 06:46:28;;;;;;;;;;;;;;;26.65;22.86;99309.97;5134944;27;19923;-75
2022/05/11 06:48:54;;;;;;;;;;;;;;;26.54;22.78;99306.69;5134865;27;20371;-74
2022/05/11 06:51:19;;;;;;;;;;;;;;;26.66;22.87;99303.34;5134857;27;19985;-75
2022/05/11 06:59:21;;;;;;;;;;;;;;;26.61;22.92;99303.47;5134937;27;19960;-77
2022/05/11 07:01:50;;;;;;;;;;;;;;;26.59;22.69;99297.50;5134984;27;20026;-76
2022/05/11 07:04:15;;;;;;;;;;;;;;;26.69;22.94;99305.44;5135029;27;19920;-76
2022/05/11 07:06:41;;;;;;;;;;;;;;;26.69;22.94;99294.47;5134313;28;20414;-76
2022/05/11 07:09:06;;;;;;;;;;;;;;;26.69;22.56;99297.22;5134705;28;19919;-74
2022/05/11 07:14:15;;;;;;;;;;;;;;;26.72;23.02;99299.31;5134952;28;19922;-75
2022/05/11 07:16:40;;;;;;;;;;;;;;;26.74;23.10;99296.25;5134946;28;19916;-75
2022/05/11 07:19:06;;;;;;;;;;;;;;;26.73;23.21;99300.94;5135088;28;19937;-75
2022/05/11 07:21:32;;;;;;;;;;;;;;;26.77;23.13;99296.41;5134711;28;19988;-75
2022/05/11 07:23:57;;;;;;;;;;;;;;;26.77;23.12;99293.69;5134489;28;20358;-75
2022/05/11 07:26:22;;;;;;;;;;;;;;;26.75;23.21;99298.69;5134131;28;19919;-73
2022/05/11 07:28:48;;;;;;;;;;;;;;;26.75;23.08;99298.69;5117066;28;19954;-74
2022/05/11 07:31:13;;;;;;;;;;;;;;;26.79;23.39;99287.88;5134645;28;19995;-74
2022/05/11 07:33:39;;;;;;;;;;;;;;;26.75;23.46;99293.19;5134251;28;20284;-73
2022/05/11 07:36:04;;;;;;;;;;;;;;;26.73;23.26;99289.97;5134370;28;19923;-73
2022/05/11 07:38:30;;;;;;;;;;;;;;;26.92;23.06;99283.34;5133858;28;19916;-73
2022/05/11 07:40:55;;;;;;;;;;;;;;;26.89;23.33;99278.50;5133959;28;19954;-73
2022/05/11 07:43:20;;;;;;;;;;;;;;;26.85;23.73;99291.25;5134220;28;20011;-74
2022/05/11 07:45:45;;;;;;;;;;;;;;;26.86;23.71;99287.41;5134593;28;20346;-75
2022/05/11 07:48:11;;;;;;;;;;;;;;;26.87;23.81;99283.50;5115677;28;20340;-74
2022/05/11 07:50:36;;;;;;;;;;;;;;;26.85;23.74;99283.03;5135080;28;19916;-74
2022/05/11 07:53:01;;;;;;;;;;;;;;;26.89;23.85;99286.72;5134176;28;20373;-76
2022/05/11 07:55:28;;;;;;;;;;;;;;;26.89;23.86;99282.06;5134063;28;20311;-75
2022/05/11 08:00:37;;;;;;;;;;;;;;;26.91;23.87;99279.00;5134190;28;20490;-73
2022/05/11 08:03:05;;;;;;;;;;;;;;;26.93;23.78;99287.72;5134046;28;19994;-74
2022/05/11 08:05:32;;;;;;;;;;;;;;;27.00;23.93;99282.53;5134479;28;19915;-75
2022/05/11 08:07:58;;;;;;;;;;;;;;;27.00;23.33;99289.97;5134089;28;19919;-73
2022/05/11 08:10:27;;;;;;;;;;;;;;;26.99;23.76;99280.91;5133588;28;19926;-74
2022/05/11 08:12:52;;;;;;;;;;;;;;;27.02;23.75;99279.47;5133817;28;20007;-74
2022/05/11 08:15:18;;;;;;;;;;;;;;;27.01;23.67;99284.16;5133822;27;19954;-74
2022/05/11 08:17:43;;;;;;;;;;;;;;;27.03;23.49;99281.06;5137403;27;19915;-75
2022/05/11 08:20:10;;;;;;;;;;;;;;;27.05;23.28;99290.59;5137165;27;20306;-76
2022/05/11 08:22:35;;;;;;;;;;;;;;;27.02;23.66;99285.75;5137146;27;19960;-76
2022/05/11 08:25:00;;;;;;;;;;;;;;;27.01;23.54;99288.81;5137022;27;19994;-75
2022/05/11 08:27:28;;;;;;;;;;;;;;;26.99;23.69;99294.63;5137473;27;19922;-75
2022/05/11 08:35:21;;;;;;;;;;;;;;;27.02;23.56;99307.69;5137069;27;19918;-74
2022/05/11 08:37:46;;;;;;;;;;;;;;;26.99;23.89;99302.84;5137218;27;19916;-75
2022/05/11 08:40:12;;;;;;;;;;;;;;;26.97;23.56;99299.63;5136978;27;20354;-76
2022/05/11 08:42:37;;;;;;;;;;;;;;;26.97;23.90;99294.97;5118406;27;20297;-75
2022/05/11 08:45:03;;;;;;;;;;;;;;;27.00;23.75;99301.72;5136694;27;19920;-74
2022/05/11 08:47:41;;;;;;;;;;;;;;;27.03;23.75;99301.09;5136889;27;19919;-73
2022/05/11 08:50:11;;;;;;;;;;;;;;;26.98;23.87;99295.75;5137174;27;19984;-73
2022/05/11 08:52:52;;;;;;;;;;;;;;;27.01;24.01;99299.78;5136944;27;20397;-73
2022/05/11 08:55:23;;;;;;;;;;;;;;;26.96;24.22;99295.28;5118452;27;19965;-74
2022/05/11 08:57:49;;;;;;;;;;;;;;;26.90;24.42;99310.28;5118415;27;19920;-75
2022/05/11 09:00:17;;;;;;;;;;;;;;;26.95;24.30;99307.38;5118354;27;19938;-73
2022/05/11 09:02:56;;;;;;;;;;;;;;;26.95;24.11;99313.66;5136779;27;20014;-74
2022/05/11 09:05:29;;;;;;;;;;;;;;;26.98;24.05;99309.47;5118173;27;19915;-76
2022/05/11 09:07:54;;;;;;;;;;;;;;;26.96;24.33;99311.75;5136376;27;19920;-74
2022/05/11 09:10:30;;;;;;;;;;;;;;;26.96;24.38;99311.75;5136181;27;20031;-74
2022/05/11 09:12:56;;;;;;;;;;;;;;;26.99;24.17;99302.84;5136547;27;19937;-75
2022/05/11 09:15:21;;;;;;;;;;;;;;;26.99;24.29;99297.38;5136422;27;20409;-74
2022/05/11 09:17:46;;;;;;;;;;;;;;;26.99;23.98;99294.63;5136254;27;19926;-74
2022/05/11 09:20:19;;;;;;;;;;;;;;;26.99;24.27;99297.38;5136424;27;19915;-74
2022/05/11 09:23:05;;;;;;;;;;;;;;;27.00;24.10;99287.22;5136486;27;19959;-74
2022/05/11 09:25:36;;;;;;;;;;;;;;;26.97;24.03;99294.97;5135940;27;20301;-74
2022/05/11 09:28:19;;;;;;;;;;;;;;;27.02;24.12;99284.97;5135102;27;20007;-74
2022/05/11 09:30:59;;;;;;;;;;;;;;;27.02;24.21;99291.22;5136020;27;19915;-74
2022/05/11 09:33:26;;;;;;;;;;;;;;;27.02;24.27;99291.22;5136286;27;19920;-74
2022/05/11 09:35:51;;;;;;;;;;;;;;;27.00;24.22;99287.22;5117763;27;20298;-74
2022/05/11 09:38:16;;;;;;;;;;;;;;;27.03;24.29;99284.63;5117272;27;19915;-73
2022/05/11 09:41:02;;;;;;;;;;;;;;;27.03;24.52;99281.91;5136124;27;20014;-73
2022/05/11 09:43:39;;;;;;;;;;;;;;;26.99;24.52;99278.16;5135029;27;20013;-75
2022/05/11 09:46:20;;;;;;;;;;;;;;;26.94;24.73;99281.06;5135591;27;20373;-75
2022/05/11 09:48:55;;;;;;;;;;;;;;;26.98;24.45;99268.34;5135919;27;19994;-75
2022/05/11 09:51:27;;;;;;;;;;;;;;;26.95;24.68;99269.78;5135768;27;19916;-74
2022/05/11 09:53:59;;;;;;;;;;;;;;;26.98;24.41;99257.38;5117446;27;19926;-73
2022/05/11 09:56:28;;;;;;;;;;;;;;;26.95;24.51;99247.06;5117793;27;19915;-73
2022/05/11 09:58:53;;;;;;;;;;;;;;;26.99;24.55;99248.00;5116707;27;19916;-73
2022/05/11 10:01:26;;;;;;;;;;;;;;;27.01;24.51;99251.25;5135397;27;19923;-72
2022/05/11 10:04:03;;;;;;;;;;;;;;;26.99;24.55;99253.50;5135302;27;19927;-74
2022/05/11 10:06:29;;;;;;;;;;;;;;;27.04;24.56;99250.59;5117276;27;20337;-77
2022/05/11 10:08:55;;;;;;;;;;;;;;;27.05;24.17;99252.22;5135266;27;19934;-75
2022/05/11 10:11:22;;;;;;;;;;;;;;;27.07;24.30;99246.41;5116688;27;19916;-75
2022/05/11 10:13:47;;;;;;;;;;;;;;;27.04;24.18;99250.59;5116520;27;19926;-76
2022/05/11 10:22:14;;;;;;;;;;;;;;;27.05;24.02;99252.22;5051536;28;19956;-75
2022/05/11 10:24:58;;;;;;;;;;;;;;;27.10;23.93;99254.78;5051411;28;20401;-75
2022/05/11 10:27:23;;;;;;;;;;;;;;;27.13;23.92;99254.13;5051421;28;20017;-74
2022/05/11 10:30:08;;;;;;;;;;;;;;;27.09;23.90;99250.41;5051479;28;19920;-74
2022/05/11 10:32:51;;;;;;;;;;;;;;;27.06;24.06;99248.34;5051560;28;19916;-77
2022/05/11 10:35:24;;;;;;;;;;;;;;;27.02;24.29;99247.38;5051309;28;19923;-73
2022/05/11 10:38:05;;;;;;;;;;;;;;;27.04;24.08;99256.06;5054363;28;20026;-74
2022/05/11 10:40:39;;;;;;;;;;;;;;;26.98;24.19;99249.97;5035453;28;20011;-76
2022/05/11 10:43:15;;;;;;;;;;;;;;;27.04;24.28;99256.06;5053648;28;19913;-77
2022/05/11 10:45:44;;;;;;;;;;;;;;;27.01;24.31;99240.28;5052066;28;19932;-76
2022/05/11 10:48:21;;;;;;;;;;;;;;;27.04;24.14;99256.06;5062710;28;19917;-76
2022/05/11 10:50:58;;;;;;;;;;;;;;;27.06;24.06;99259.31;5043247;28;19920;-76
2022/05/11 10:53:35;;;;;;;;;;;;;;;27.00;24.17;99255.13;5060101;28;19913;-74
2022/05/11 10:56:00;;;;;;;;;;;;;;;26.99;24.15;99253.50;5058668;28;19917;-75
2022/05/11 10:58:46;;;;;;;;;;;;;;;27.02;24.40;99254.78;5105812;27;19922;-77
2022/05/11 11:01:12;;;;;;;;;;;;;;;27.05;24.34;99262.38;5051042;28;20000;-75
2022/05/11 11:03:52;;;;;;;;;;;;;;;27.04;24.31;99256.06;5052248;28;19923;-76
2022/05/11 11:09:16;;;;;;;;;;;;;;;27.03;24.14;99265.44;5050929;28;20433;-74
2022/05/11 11:11:53;;;;;;;;;;;;;;;27.08;24.12;99259.78;5051458;28;20387;-75
2022/05/11 11:14:24;;;;;;;;;;;;;;;27.10;23.94;99259.47;5053028;28;19999;-73
2022/05/11 11:16:49;;;;;;;;;;;;;;;27.07;24.28;99271.88;5036286;28;19921;-75
2022/05/11 11:19:14;;;;;;;;;;;;;;;27.06;24.17;99270.28;5054462;28;19990;-74
2022/05/11 11:21:40;;;;;;;;;;;;;;;27.09;24.08;99268.81;5036372;28;20354;-75
2022/05/11 11:24:11;;;;;;;;;;;;;;;27.06;24.06;99269.47;5036096;28;19939;-74
2022/05/11 11:26:46;;;;;;;;;;;;;;;27.08;24.32;99261.69;5052884;28;20402;-75
2022/05/11 11:29:11;;;;;;;;;;;;;;;26.99;24.60;99264.47;5034909;28;19917;-76
2022/05/11 11:31:55;;;;;;;;;;;;;;;27.03;24.21;99275.59;5052304;28;19917;-75
2022/05/11 11:34:23;;;;;;;;;;;;;;;27.03;24.35;99270.94;5055763;28;19932;-75
2022/05/11 11:36:48;;;;;;;;;;;;;;;27.03;24.53;99273.66;5064827;28;19968;-74
2022/05/11 11:39:33;;;;;;;;;;;;;;;26.93;24.43;99274.00;5108428;28;20373;-75
2022/05/11 11:42:03;;;;;;;;;;;;;;;26.98;24.21;99271.88;5135422;28;19994;-74
2022/05/11 11:44:34;;;;;;;;;;;;;;;26.99;24.35;99269.94;5115389;28;19948;-75
2022/05/11 11:46:59;;;;;;;;;;;;;;;27.00;24.46;99279.78;5115608;28;19993;-76
2022/05/11 11:49:27;;;;;;;;;;;;;;;26.99;24.16;99272.69;5139272;28;19923;-76
2022/05/11 11:51:56;;;;;;;;;;;;;;;27.04;24.21;99278.00;5146940;27;19915;-77
2022/05/11 11:54:29;;;;;;;;;;;;;;;27.04;24.37;99266.25;5140466;27;20015;-76
2022/05/11 11:56:55;;;;;;;;;;;;;;;27.03;24.28;99268.19;5140236;27;20315;-75
2022/05/11 11:59:24;;;;;;;;;;;;;;;27.05;24.27;99267.88;5119411;27;19919;-76
2022/05/11 12:01:49;;;;;;;;;;;;;;;26.98;24.42;99263.66;5139434;27;19920;-76
2022/05/11 12:04:22;;;;;;;;;;;;;;;27.00;24.45;99271.56;5120315;27;20357;-76
2022/05/11 12:15:18;;;;;;;;;;;;;;;26.90;24.78;99261.72;5125575;27;20285;-74
2022/05/11 12:17:44;;;;;;;;;;;;;;;27.00;24.45;99271.56;5143436;27;20026;-75
2022/05/11 12:20:32;;;;;;;;;;;;;;;27.01;24.64;99259.47;5139610;27;19973;-75
2022/05/11 12:22:57;;;;;;;;;;;;;;;27.02;24.34;99268.50;5138274;27;19916;-75
2022/05/11 12:25:28;;;;;;;;;;;;;;;27.01;24.43;99264.13;5139968;27;20415;-74
2022/05/11 12:27:53;;;;;;;;;;;;;;;26.98;24.41;99265.59;5138632;27;19941;-75
2022/05/11 12:30:24;;;;;;;;;;;;;;;26.95;24.57;99263.50;5138991;27;20014;-74
2022/05/11 12:32:52;;;;;;;;;;;;;;;26.98;24.49;99252.69;5139047;27;19920;-74
2022/05/11 12:35:18;;;;;;;;;;;;;;;26.78;24.81;99254.16;5137851;27;20255;-75
2022/05/11 12:37:44;;;;;;;;;;;;;;;26.95;24.55;99252.53;5137533;27;19916;-75
2022/05/11 12:40:17;;;;;;;;;;;;;;;26.97;24.62;99244.78;5138213;27;20277;-73
2022/05/11 12:42:44;;;;;;;;;;;;;;;26.98;24.61;99251.91;5138711;27;19919;-75
2022/05/11 12:45:10;;;;;;;;;;;;;;;26.99;24.52;99250.75;5138000;27;20269;-75
2022/05/11 12:47:37;;;;;;;;;;;;;;;26.98;24.56;99246.41;5119148;27;19915;-75
2022/05/11 12:50:02;;;;;;;;;;;;;;;26.97;24.53;99251.09;5139046;27;19938;-75
2022/05/11 12:52:28;;;;;;;;;;;;;;;26.98;24.71;99252.69;5137573;27;20390;-75
2022/05/11 12:54:57;;;;;;;;;;;;;;;26.97;24.58;99247.53;5144288;27;19926;-75
2022/05/11 12:57:22;;;;;;;;;;;;;;;26.98;24.73;99249.16;5140775;27;19923;-74
2022/05/11 12:59:48;;;;;;;;;;;;;;;26.98;24.52;99249.16;5139977;27;19919;-77
2022/05/11 13:02:38;;;;;;;;;;;;;;;26.99;24.67;99253.50;5137723;27;19915;-75
2022/05/11 13:05:05;;;;;;;;;;;;;;;27.00;24.47;99246.91;5137600;27;19915;-73
2022/05/11 13:07:35;;;;;;;;;;;;;;;27.02;24.42;99261.06;5141755;27;19964;-74
2022/05/11 13:10:00;;;;;;;;;;;;;;;26.99;24.22;99253.50;5138645;27;19920;-73
2022/05/11 13:12:25;;;;;;;;;;;;;;;27.00;24.07;99252.38;5139424;27;19948;-74
2022/05/11 13:14:52;;;;;;;;;;;;;;;26.96;24.05;99254.16;5141625;27;19915;-74
2022/05/11 13:17:18;;;;;;;;;;;;;;;26.96;24.01;99259.66;5145184;27;19915;-73
2022/05/11 13:19:51;;;;;;;;;;;;;;;26.95;24.15;99247.06;5138558;27;19915;-73
2022/05/11 13:22:19;;;;;;;;;;;;;;;26.91;24.26;99244.16;5137491;27;20179;-74
2022/05/11 13:24:54;;;;;;;;;;;;;;;26.93;24.29;99244.63;5136596;27;19963;-77
2022/05/11 13:27:32;;;;;;;;;;;;;;;26.88;24.38;99231.09;5136772;27;19976;-75
2022/05/11 13:30:10;;;;;;;;;;;;;;;26.90;24.13;99233.53;5137708;27;19919;-74
2022/05/11 13:32:48;;;;;;;;;;;;;;;26.93;24.14;99232.88;5137188;27;20077;-73